createdAt,value
2019-04-27T00:01:59.301Z,15.93
2019-04-27T00:04:28.284Z,15.48
2019-04-27T00:06:59.982Z,15.30
2019-04-27T00:09:29.040Z,12.63
2019-04-27T00:11:58.074Z,10.65
2019-04-27T00:14:25.533Z,11.15
2019-04-27T00:16:54.504Z,17.92
2019-04-27T00:19:35.470Z,11.88
2019-04-27T00:22:14.979Z,13.58
2019-04-27T00:24:44.173Z,8.48
2019-04-27T00:27:13.253Z,13.25
2019-04-27T00:29:40.788Z,8.05
2019-04-27T00:32:08.186Z,14.83
2019-04-27T00:34:35.946Z,13.28
2019-04-27T00:37:21.389Z,13.70
2019-04-27T00:39:56.218Z,6.87
2019-04-27T00:42:23.664Z,10.83
2019-04-27T00:44:50.972Z,12.63
2019-04-27T00:47:18.380Z,15.50
2019-04-27T00:49:45.692Z,11.90
2019-04-27T00:52:13.896Z,9.97
2019-04-27T00:54:41.353Z,14.87
2019-04-27T00:57:25.295Z,8.83
2019-04-27T01:00:11.052Z,13.13
2019-04-27T01:02:40.023Z,10.50
2019-04-27T01:05:09.018Z,11.17
2019-04-27T01:07:36.350Z,11.60
2019-04-27T01:10:05.294Z,9.50
2019-04-27T01:12:33.416Z,12.67
2019-04-27T01:15:00.849Z,9.83
2019-04-27T01:17:28.873Z,7.87
2019-04-27T01:19:56.191Z,8.60
2019-04-27T01:22:23.589Z,8.83
2019-04-27T01:24:50.973Z,7.63
2019-04-27T01:27:39.303Z,5.87
2019-04-27T01:30:08.797Z,7.13
2019-04-27T01:32:36.173Z,9.00
2019-04-27T01:35:03.672Z,4.40
2019-04-27T01:37:30.994Z,11.27
2019-04-27T01:39:59.040Z,6.47
2019-04-27T01:42:26.432Z,7.43
2019-04-27T01:44:53.814Z,10.27
2019-04-27T01:47:21.214Z,10.23
2019-04-27T01:49:49.504Z,7.53
2019-04-27T01:52:17.017Z,10.70
2019-04-27T01:54:44.313Z,7.77
2019-04-27T01:57:11.712Z,7.40
2019-04-27T01:59:39.137Z,5.37
2019-04-27T02:02:24.629Z,5.27
2019-04-27T02:04:53.676Z,6.60
2019-04-27T02:07:21.103Z,7.87
2019-04-27T02:09:48.717Z,6.43
2019-04-27T02:12:16.237Z,11.13
2019-04-27T02:14:43.577Z,12.40
2019-04-27T02:17:10.899Z,4.60
2019-04-27T02:19:39.266Z,4.60
2019-04-27T02:22:08.483Z,8.03
2019-04-27T02:24:35.607Z,8.93
2019-04-27T02:27:02.981Z,3.33
2019-04-27T02:29:34.789Z,3.73
2019-04-27T02:32:20.424Z,5.40
2019-04-27T02:35:01.194Z,6.27
2019-04-27T02:37:30.489Z,5.60
2019-04-27T02:39:59.831Z,3.93
2019-04-27T02:42:29.781Z,6.50
2019-04-27T02:44:59.632Z,6.17
2019-04-27T02:47:26.219Z,10.13
2019-04-27T02:49:53.647Z,7.03
2019-04-27T02:52:22.667Z,8.43
2019-04-27T02:54:50.706Z,6.57
2019-04-27T02:57:19.851Z,8.37
2019-04-27T02:59:50.005Z,5.57
2019-04-27T03:02:24.438Z,6.23
2019-04-27T03:04:51.846Z,6.90
2019-04-27T03:07:20.073Z,8.73
2019-04-27T03:09:47.644Z,5.47
2019-04-27T03:12:16.254Z,6.97
2019-04-27T03:14:45.248Z,7.70
2019-04-27T03:17:14.242Z,5.57
2019-04-27T03:19:49.485Z,7.27
2019-04-27T03:22:19.907Z,6.57
2019-04-27T03:24:59.932Z,7.43
2019-04-27T03:27:30.886Z,10.30
2019-04-27T03:29:59.681Z,9.90
2019-04-27T03:32:30.824Z,6.50
2019-04-27T03:34:56.324Z,9.93
2019-04-27T03:37:23.702Z,6.93
2019-04-27T03:39:51.019Z,9.30
2019-04-27T03:42:20.591Z,8.30
2019-04-27T03:44:50.018Z,12.10
2019-04-27T03:47:16.430Z,7.30
2019-04-27T03:49:44.678Z,8.60
2019-04-27T03:52:19.903Z,10.20
2019-04-27T03:54:51.524Z,8.57
2019-04-27T03:57:20.471Z,8.80
2019-04-27T04:00:10.119Z,8.80
2019-04-27T04:02:36.913Z,8.10
2019-04-27T04:05:05.625Z,11.40
2019-04-27T04:07:33.111Z,11.83
2019-04-27T04:10:00.557Z,12.53
2019-04-27T04:12:30.307Z,10.77
2019-04-27T04:14:59.775Z,8.83
2019-04-27T04:17:30.441Z,9.90
2019-04-27T04:20:01.471Z,12.83
2019-04-27T04:22:29.981Z,10.43
2019-04-27T04:24:56.494Z,15.77
2019-04-27T04:27:23.843Z,13.87
2019-04-27T04:29:51.213Z,15.13
2019-04-27T04:32:19.238Z,13.83
2019-04-27T04:34:46.899Z,11.93
2019-04-27T04:37:14.234Z,12.50
2019-04-27T04:39:41.554Z,13.67
2019-04-27T04:42:22.566Z,12.87
2019-04-27T04:44:54.097Z,16.07
2019-04-27T04:47:26.078Z,16.43
2019-04-27T04:50:07.441Z,17.73
2019-04-27T04:52:22.555Z,13.60
2019-04-27T04:54:49.972Z,13.83
2019-04-27T04:57:21.558Z,13.67
2019-04-27T04:59:46.532Z,16.37
2019-04-27T05:02:13.892Z,17.40
2019-04-27T05:04:41.254Z,16.80
2019-04-27T05:07:09.236Z,14.63
2019-04-27T05:09:36.685Z,16.97
2019-04-27T05:12:04.038Z,19.20
2019-04-27T05:14:31.353Z,16.93
2019-04-27T05:16:59.203Z,16.20
2019-04-27T05:19:28.683Z,15.30
2019-04-27T05:21:55.824Z,14.67
2019-04-27T05:24:23.213Z,17.50
2019-04-27T05:26:50.595Z,17.90
2019-04-27T05:29:19.178Z,14.97
2019-04-27T05:31:46.714Z,17.23
2019-04-27T05:34:14.167Z,15.93
2019-04-27T05:36:48.978Z,20.13
2019-04-27T05:39:13.131Z,15.47
2019-04-27T05:41:41.708Z,15.27
2019-04-27T05:44:12.630Z,18.20
2019-04-27T05:46:52.896Z,20.50
2019-04-27T05:49:24.719Z,16.20
2019-04-27T05:51:52.035Z,14.43
2019-04-27T05:54:19.450Z,15.87
2019-04-27T05:56:46.947Z,14.13
2019-04-27T05:59:14.879Z,14.80
2019-04-27T06:01:42.369Z,17.33
2019-04-27T06:04:09.709Z,15.10
2019-04-27T06:06:37.198Z,13.67
2019-04-27T06:09:05.765Z,14.20
2019-04-27T06:11:33.291Z,17.07
2019-04-27T06:14:00.713Z,16.17
2019-04-27T06:16:29.541Z,16.10
2019-04-27T06:18:57.055Z,18.27
2019-04-27T06:21:24.425Z,19.05
2019-04-27T06:23:51.756Z,18.10
2019-04-27T06:26:20.216Z,20.30
2019-04-27T06:28:47.567Z,16.80
2019-04-27T06:31:14.992Z,19.57
2019-04-27T06:33:42.351Z,16.20
2019-04-27T06:36:10.081Z,19.43
2019-04-27T06:38:39.219Z,15.00
2019-04-27T06:41:06.561Z,14.40
2019-04-27T06:43:33.953Z,13.30
2019-04-27T06:46:01.301Z,13.43
2019-04-27T06:48:29.612Z,12.13
2019-04-27T06:51:03.587Z,13.70
2019-04-27T06:53:26.081Z,13.67
2019-04-27T06:55:53.425Z,11.53
2019-04-27T06:58:20.740Z,10.83
2019-04-27T07:00:49.573Z,10.50
2019-04-27T07:03:18.768Z,8.40
2019-04-27T07:05:45.992Z,9.10
2019-04-27T07:08:13.348Z,8.73
2019-04-27T07:10:40.683Z,9.67
2019-04-27T07:13:09.585Z,9.90
2019-04-27T07:15:38.722Z,10.90
2019-04-27T07:18:06.319Z,10.30
2019-04-27T07:20:33.683Z,11.27
2019-04-27T07:23:01.113Z,11.13
2019-04-27T07:25:28.870Z,10.60
2019-04-27T07:27:56.446Z,10.67
2019-04-27T07:30:23.811Z,12.03
2019-04-27T07:32:51.103Z,12.97
2019-04-27T07:35:19.689Z,10.63
2019-04-27T07:37:48.756Z,9.87
2019-04-27T07:40:16.271Z,11.27
2019-04-27T07:42:46.023Z,9.83
2019-04-27T07:45:20.949Z,10.10
2019-04-27T07:47:49.939Z,8.63
2019-04-27T07:50:17.327Z,11.60
2019-04-27T07:52:44.654Z,9.73
2019-04-27T07:55:11.969Z,11.00
2019-04-27T07:57:40.002Z,9.80
2019-04-27T08:00:09.359Z,8.67
2019-04-27T08:02:36.661Z,9.80
2019-04-27T08:05:04.843Z,10.83
2019-04-27T08:07:32.268Z,9.33
2019-04-27T08:10:01.547Z,10.07
2019-04-27T08:12:28.935Z,11.67
2019-04-27T08:14:56.519Z,11.33
2019-04-27T08:17:23.863Z,12.00
2019-04-27T08:19:51.239Z,12.27
2019-04-27T08:22:19.430Z,11.87
2019-04-27T08:24:46.969Z,11.80
2019-04-27T08:27:19.486Z,13.47
2019-04-27T08:30:04.891Z,13.23
2019-04-27T08:32:36.627Z,12.43
2019-04-27T08:35:05.536Z,13.07
2019-04-27T08:37:32.853Z,14.00
2019-04-27T08:40:00.184Z,14.00
2019-04-27T08:42:30.778Z,14.63
2019-04-27T08:44:59.446Z,14.27
2019-04-27T08:47:26.900Z,14.07
2019-04-27T08:49:54.243Z,15.03
2019-04-27T08:52:21.607Z,18.17
2019-04-27T08:54:49.310Z,13.93
2019-04-27T08:57:18.813Z,13.73
2019-04-27T08:59:46.465Z,13.97
2019-04-27T09:02:13.921Z,12.67
2019-04-27T09:04:41.345Z,15.30
2019-04-27T09:07:26.792Z,12.30
2019-04-27T09:09:59.624Z,12.87
2019-04-27T09:12:46.905Z,15.03
2019-04-27T09:15:15.933Z,12.63
2019-04-27T09:17:48.846Z,17.13
2019-04-27T09:20:28.634Z,14.57
2019-04-27T09:22:56.330Z,13.43
2019-04-27T09:25:25.316Z,14.23
2019-04-27T09:27:52.641Z,13.83
2019-04-27T09:30:20.052Z,13.47
2019-04-27T09:32:47.671Z,15.10
2019-04-27T09:35:16.158Z,14.50
2019-04-27T09:37:43.644Z,13.83
2019-04-27T09:40:13.715Z,14.97
2019-04-27T09:42:41.063Z,13.73
2019-04-27T09:45:08.459Z,15.13
2019-04-27T09:47:36.915Z,13.40
2019-04-27T09:50:05.779Z,13.10
2019-04-27T09:52:33.134Z,11.53
2019-04-27T09:55:00.819Z,12.23
2019-04-27T09:57:28.250Z,10.53
2019-04-27T09:59:56.488Z,11.57
2019-04-27T10:02:24.018Z,13.07
2019-04-27T10:04:51.375Z,11.17
2019-04-27T10:07:18.720Z,11.53
2019-04-27T10:09:47.497Z,14.10
2019-04-27T10:12:15.867Z,9.43
2019-04-27T10:14:43.394Z,9.23
2019-04-27T10:17:10.744Z,11.60
2019-04-27T10:19:38.133Z,8.97
2019-04-27T10:22:06.004Z,7.63
2019-04-27T10:24:33.319Z,8.50
2019-04-27T10:27:00.640Z,8.27
2019-04-27T10:29:27.985Z,7.00
2019-04-27T10:31:56.480Z,8.33
2019-04-27T10:34:23.838Z,7.30
2019-04-27T10:36:51.178Z,6.60
2019-04-27T10:39:18.618Z,6.60
2019-04-27T10:41:46.418Z,7.27
2019-04-27T10:44:13.921Z,9.63
2019-04-27T10:46:41.278Z,6.50
2019-04-27T10:49:08.996Z,8.70
2019-04-27T10:51:36.482Z,7.00
2019-04-27T10:54:04.215Z,7.80
2019-04-27T10:56:31.735Z,10.60
2019-04-27T10:58:59.039Z,8.83
2019-04-27T11:01:26.352Z,9.57
2019-04-27T11:04:01.343Z,9.13
2019-04-27T11:06:30.302Z,10.90
2019-04-27T11:08:57.671Z,9.70
2019-04-27T11:11:25.860Z,9.10
2019-04-27T11:13:53.997Z,9.37
2019-04-27T11:16:21.395Z,9.80
2019-04-27T11:18:48.800Z,10.23
2019-04-27T11:21:16.169Z,8.97
2019-04-27T11:23:43.612Z,8.50
2019-04-27T11:26:11.233Z,9.10
2019-04-27T11:28:38.709Z,7.90
2019-04-27T11:31:06.108Z,9.80
2019-04-27T11:33:33.439Z,9.57
2019-04-27T11:36:17.523Z,8.50
2019-04-27T11:38:46.502Z,8.07
2019-04-27T11:41:13.873Z,8.07
2019-04-27T11:43:41.301Z,10.70
2019-04-27T11:46:08.663Z,10.03
2019-04-27T11:48:36.338Z,11.73
2019-04-27T11:51:03.665Z,11.90
2019-04-27T11:53:31.111Z,12.47
2019-04-27T11:55:58.461Z,13.27
2019-04-27T11:58:26.518Z,12.73
2019-04-27T12:00:54.047Z,14.40
2019-04-27T12:03:21.385Z,14.87
2019-04-27T12:05:48.765Z,12.90
2019-04-27T12:08:16.307Z,12.10
2019-04-27T12:10:46.398Z,11.10
2019-04-27T12:13:15.927Z,11.23
2019-04-27T12:15:43.331Z,9.60
2019-04-27T12:18:10.713Z,9.53
2019-04-27T12:20:38.192Z,12.07
2019-04-27T12:23:06.553Z,13.37
2019-04-27T12:25:37.029Z,11.30
2019-04-27T12:28:22.866Z,10.87
2019-04-27T12:31:03.891Z,10.93
2019-04-27T12:33:31.344Z,11.50
2019-04-27T12:35:58.645Z,11.53
2019-04-27T12:38:26.335Z,10.83
2019-04-27T12:40:57.532Z,7.03
2019-04-27T12:43:25.020Z,9.30
2019-04-27T12:45:52.354Z,8.00
2019-04-27T12:48:19.680Z,9.03
2019-04-27T12:50:47.017Z,9.93
2019-04-27T12:53:32.417Z,11.10
2019-04-27T12:56:13.690Z,11.53
2019-04-27T12:58:51.477Z,10.70
2019-04-27T13:01:20.655Z,12.43
2019-04-27T13:03:48.008Z,11.07
2019-04-27T13:06:15.389Z,10.83
2019-04-27T13:08:42.749Z,10.93
2019-04-27T13:11:10.153Z,10.90
2019-04-27T13:13:37.472Z,11.33
2019-04-27T13:16:06.414Z,11.17
2019-04-27T13:18:33.936Z,10.60
2019-04-27T13:21:01.279Z,11.17
2019-04-27T13:23:28.655Z,9.67
2019-04-27T13:25:56.497Z,10.10
2019-04-27T13:28:25.660Z,9.00
2019-04-27T13:30:53.072Z,11.13
2019-04-27T13:33:20.716Z,9.70
2019-04-27T13:35:48.021Z,11.30
2019-04-27T13:38:17.778Z,11.53
2019-04-27T13:40:45.874Z,10.43
2019-04-27T13:43:20.972Z,9.87
2019-04-27T13:46:05.322Z,9.43
2019-04-27T13:48:36.314Z,8.50
2019-04-27T13:51:13.880Z,10.60
2019-04-27T13:53:41.200Z,9.23
2019-04-27T13:56:17.639Z,14.63
2019-04-27T13:58:45.170Z,14.17
2019-04-27T14:01:12.479Z,10.17
2019-04-27T14:03:40.171Z,10.90
2019-04-27T14:06:08.109Z,9.60
2019-04-27T14:08:35.596Z,13.67
2019-04-27T14:11:03.065Z,9.80
2019-04-27T14:13:30.446Z,8.20
2019-04-27T14:15:57.840Z,11.40
2019-04-27T14:18:25.502Z,13.47
2019-04-27T14:20:52.896Z,8.63
2019-04-27T14:23:21.883Z,7.60
2019-04-27T14:25:49.189Z,7.57
2019-04-27T14:28:18.236Z,19.83
2019-04-27T14:30:45.856Z,18.03
2019-04-27T14:33:13.313Z,7.67
2019-04-27T14:35:40.611Z,9.10
2019-04-27T14:38:09.127Z,9.83
2019-04-27T14:40:36.508Z,13.10
2019-04-27T14:43:03.923Z,10.30
2019-04-27T14:45:31.263Z,6.87
2019-04-27T14:47:58.589Z,11.77
2019-04-27T14:50:26.403Z,9.73
2019-04-27T14:52:53.717Z,12.37
2019-04-27T14:55:21.108Z,7.30
2019-04-27T14:57:49.568Z,6.00
2019-04-27T15:00:19.236Z,7.63
2019-04-27T15:02:46.658Z,8.10
2019-04-27T15:05:14.123Z,6.87
2019-04-27T15:07:41.444Z,6.60
2019-04-27T15:10:08.877Z,5.97
2019-04-27T15:12:36.288Z,6.37
2019-04-27T15:15:05.275Z,10.00
2019-04-27T15:17:32.896Z,11.43
2019-04-27T15:20:10.536Z,25.87
2019-04-27T15:22:40.214Z,15.60
2019-04-27T15:25:12.959Z,13.33
2019-04-27T15:27:40.489Z,8.33
2019-04-27T15:30:11.497Z,14.27
2019-04-27T15:32:40.758Z,10.87
2019-04-27T15:35:24.724Z,15.27
2019-04-27T15:37:56.804Z,17.17
2019-04-27T15:40:29.015Z,18.90
2019-04-27T15:43:00.863Z,13.50
2019-04-27T15:45:28.609Z,9.47
2019-04-27T15:47:55.979Z,8.97
2019-04-27T15:50:27.703Z,8.20
2019-04-27T15:52:52.443Z,8.00
2019-04-27T15:55:32.142Z,7.10
2019-04-27T15:57:50.394Z,8.90
2019-04-27T16:00:21.039Z,7.70
2019-04-27T16:02:52.445Z,8.13
2019-04-27T16:05:19.154Z,8.50
2019-04-27T16:07:47.919Z,8.20
2019-04-27T16:10:15.276Z,8.33
2019-04-27T16:12:54.784Z,9.17
2019-04-27T16:15:13.488Z,9.10
2019-04-27T16:17:43.909Z,7.67
2019-04-27T16:20:09.822Z,7.40
2019-04-27T16:22:37.137Z,8.30
2019-04-27T16:25:05.250Z,8.40
2019-04-27T16:27:34.195Z,9.30
2019-04-27T16:30:09.656Z,8.67
2019-04-27T16:32:31.099Z,9.13
2019-04-27T16:34:59.269Z,11.87
2019-04-27T16:37:44.648Z,10.40
2019-04-27T16:40:12.054Z,19.47
2019-04-27T16:42:40.724Z,21.13
2019-04-27T16:45:08.587Z,18.03
2019-04-27T16:47:38.313Z,25.57
2019-04-27T16:50:08.335Z,31.93
2019-04-27T16:52:35.725Z,32.13
2019-04-27T16:55:03.141Z,32.10
2019-04-27T16:57:32.426Z,33.10
2019-04-27T17:00:01.180Z,30.90
2019-04-27T17:02:28.764Z,33.27
2019-04-27T17:04:56.062Z,19.77
2019-04-27T17:07:23.413Z,29.30
2019-04-27T17:09:50.796Z,33.57
2019-04-27T17:12:18.597Z,33.60
2019-04-27T17:15:05.953Z,24.03
2019-04-27T17:17:50.842Z,27.93
2019-04-27T17:20:21.005Z,27.97
2019-04-27T17:22:50.228Z,20.37
2019-04-27T17:25:15.375Z,18.33
2019-04-27T17:27:45.862Z,18.03
2019-04-27T17:30:13.301Z,20.27
2019-04-27T17:32:49.302Z,18.57
2019-04-27T17:35:18.387Z,21.30
2019-04-27T17:37:45.878Z,19.30
2019-04-27T17:40:15.414Z,19.80
2019-04-27T17:42:42.329Z,20.67
2019-04-27T17:45:09.860Z,19.93
2019-04-27T17:47:38.708Z,19.00
2019-04-27T17:50:06.337Z,20.83
2019-04-27T17:52:33.707Z,17.90
2019-04-27T17:55:01.059Z,18.27
2019-04-27T17:57:30.120Z,19.77
2019-04-27T18:00:00.076Z,19.40
2019-04-27T18:02:29.222Z,23.90
2019-04-27T18:04:56.317Z,19.40
2019-04-27T18:07:23.736Z,21.23
2019-04-27T18:09:51.176Z,19.10
2019-04-27T18:12:18.504Z,19.07
2019-04-27T18:14:47.823Z,14.70
2019-04-27T18:17:14.940Z,14.93
2019-04-27T18:19:50.246Z,13.57
2019-04-27T18:22:18.168Z,15.60
2019-04-27T18:24:48.188Z,13.33
2019-04-27T18:27:22.807Z,14.80
2019-04-27T18:29:50.282Z,13.40
2019-04-27T18:32:17.743Z,13.87
2019-04-27T18:34:45.346Z,14.73
2019-04-27T18:37:14.428Z,13.30
2019-04-27T18:39:45.456Z,15.10
2019-04-27T18:42:12.234Z,15.27
2019-04-27T18:44:39.593Z,15.83
2019-04-27T18:47:08.408Z,14.67
2019-04-27T18:49:38.615Z,15.23
2019-04-27T18:52:13.516Z,15.53
2019-04-27T18:54:42.156Z,15.60
2019-04-27T18:57:10.718Z,17.07
2019-04-27T18:59:38.733Z,17.17
2019-04-27T19:02:08.205Z,25.57
2019-04-27T19:04:35.321Z,32.17
2019-04-27T19:07:02.640Z,38.70
2019-04-27T19:09:30.046Z,38.83
2019-04-27T19:11:57.397Z,46.50
2019-04-27T19:14:24.740Z,55.73
2019-04-27T19:16:52.085Z,35.93
2019-04-27T19:19:19.474Z,28.80
2019-04-27T19:21:48.620Z,22.63
2019-04-27T19:24:16.213Z,19.73
2019-04-27T19:26:48.451Z,21.43
2019-04-27T19:29:18.868Z,21.30
2019-04-27T19:31:58.528Z,20.13
2019-04-27T19:34:25.990Z,22.17
2019-04-27T19:36:53.315Z,20.60
2019-04-27T19:39:20.667Z,22.50
2019-04-27T19:42:00.003Z,26.03
2019-04-27T19:44:18.756Z,20.43
2019-04-27T19:46:46.352Z,22.43
2019-04-27T19:49:13.687Z,23.43
2019-04-27T19:51:41.045Z,27.33
2019-04-27T19:54:09.041Z,26.60
2019-04-27T19:56:38.382Z,28.43
2019-04-27T19:59:24.012Z,30.50
2019-04-27T20:01:53.005Z,30.37
2019-04-27T20:04:30.949Z,32.80
2019-04-27T20:06:58.381Z,31.77
2019-04-27T20:09:36.187Z,32.83
2019-04-27T20:12:05.270Z,28.37
2019-04-27T20:14:34.215Z,27.73
2019-04-27T20:17:01.570Z,31.70
2019-04-27T20:19:28.978Z,30.37
2019-04-27T20:21:56.300Z,28.23
2019-04-27T20:24:23.703Z,30.17
2019-04-27T20:26:51.294Z,27.37
2019-04-27T20:29:18.609Z,29.50
2019-04-27T20:31:45.932Z,31.60
2019-04-27T20:34:13.276Z,28.17
2019-04-27T20:36:41.484Z,28.47
2019-04-27T20:39:08.959Z,30.70
2019-04-27T20:41:36.349Z,30.07
2019-04-27T20:44:04.416Z,29.73
2019-04-27T20:46:31.793Z,28.63
2019-04-27T20:49:00.837Z,33.87
2019-04-27T20:51:31.045Z,27.87
2019-04-27T20:53:59.462Z,32.37
2019-04-27T20:56:26.806Z,26.37
2019-04-27T20:58:54.368Z,27.17
2019-04-27T21:01:21.739Z,29.47
2019-04-27T21:03:51.181Z,32.10
2019-04-27T21:06:35.678Z,27.10
2019-04-27T21:09:04.817Z,29.43
2019-04-27T21:11:33.776Z,29.07
2019-04-27T21:14:01.209Z,30.90
2019-04-27T21:16:28.619Z,29.57
2019-04-27T21:18:56.356Z,28.03
2019-04-27T21:21:23.690Z,29.83
2019-04-27T21:23:51.539Z,30.60
2019-04-27T21:26:19.043Z,28.03
2019-04-27T21:28:46.366Z,31.30
2019-04-27T21:31:13.775Z,30.67
2019-04-27T21:33:41.168Z,31.80
2019-04-27T21:36:08.631Z,28.80
2019-04-27T21:38:36.048Z,28.30
2019-04-27T21:41:03.504Z,27.07
2019-04-27T21:43:32.260Z,32.43
2019-04-27T21:45:59.828Z,28.53
2019-04-27T21:48:27.181Z,27.77
2019-04-27T21:50:54.583Z,27.90
2019-04-27T21:53:26.397Z,32.73
2019-04-27T21:56:01.447Z,28.67
2019-04-27T21:58:29.131Z,27.03
2019-04-27T22:01:04.189Z,26.07
2019-04-27T22:03:31.691Z,27.37
2019-04-27T22:05:59.305Z,27.20
2019-04-27T22:08:26.713Z,24.67
2019-04-27T22:10:54.125Z,26.33
2019-04-27T22:13:22.349Z,24.53
2019-04-27T22:15:49.805Z,25.20
2019-04-27T22:18:17.924Z,25.70
2019-04-27T22:20:45.283Z,26.97
2019-04-27T22:23:16.765Z,26.10
2019-04-27T22:25:44.119Z,27.00
2019-04-27T22:28:11.803Z,27.53
2019-04-27T22:30:39.263Z,26.27
2019-04-27T22:33:06.605Z,27.43
2019-04-27T22:35:33.929Z,27.97
2019-04-27T22:38:01.999Z,29.73
2019-04-27T22:40:41.847Z,31.57
2019-04-27T22:43:13.953Z,30.33
2019-04-27T22:45:42.990Z,35.07
2019-04-27T22:48:11.290Z,30.83
2019-04-27T22:50:38.680Z,37.13
2019-04-27T22:53:08.336Z,35.93
2019-04-27T22:55:36.792Z,35.33
2019-04-27T22:58:08.421Z,34.87
2019-04-27T23:00:51.171Z,37.63
2019-04-27T23:03:21.145Z,37.03
2019-04-27T23:05:48.575Z,38.10
2019-04-27T23:08:15.980Z,38.87
2019-04-27T23:10:43.313Z,37.47
2019-04-27T23:13:11.338Z,37.73
2019-04-27T23:15:41.162Z,35.90
2019-04-27T23:18:08.747Z,40.17
2019-04-27T23:20:36.133Z,37.20
2019-04-27T23:23:03.691Z,36.20
2019-04-27T23:25:31.089Z,38.40
2019-04-27T23:27:58.429Z,41.77
2019-04-27T23:30:27.463Z,39.23
2019-04-27T23:32:54.804Z,38.83
2019-04-27T23:35:22.140Z,36.57
2019-04-27T23:37:50.805Z,36.67
2019-04-27T23:40:18.449Z,40.43
2019-04-27T23:42:45.793Z,40.13
2019-04-27T23:45:13.190Z,39.57
2019-04-27T23:47:40.542Z,41.33
2019-04-27T23:50:07.870Z,37.73
2019-04-27T23:52:52.626Z,38.50
2019-04-27T23:55:21.737Z,40.93
2019-04-27T23:57:49.082Z,39.23
